East Line, New York
Current Conditions -  °F | °C
As of 8:51 AM on Friday 24 Oct 2014 (Local Time) from KALB Reporting Station
Drizzle Drizzle  
Wind Chill: 42°   Ceiling: 600
Heat Index: 46°   Visibility: 3mi
Dew Point: 43°   Wind: 7mph
Humidity: 89%   Direction: 20°NNE
Pressure: 29.85"   Gusts: NA
Location:  43.002°N, 73.8759°W
Report Text: KALB 241251Z 02006KT 3SM -DZ BR BKN006 BKN012 OVC020 08/06 A2985 RMK AO2 RAE1155DZB1155 SLP110 VIS W-NW 2 BKN006 V SCT P0002 T00780061 $
Loading
Personal Weather Stations






























Interactive Weather Map
Tropical Storm Tracking
New forecast layout! Learn more

10-Day Weather Forecast

Advertisements
Track Severe Weather on mobile